首页
METAR-TAF:

METAR-TAF

机场 :

Shelby County Airport

阿拉巴斯特, 阿拉巴马州, 美国

纬度: 33-10-42N, 经度: 086-46-54W, 海拔: 178米

当前天气观测

该预报发布于57分钟前的07:53 UTC
风速4节,风向东转东南
温度 10°C
湿度 87%
气压 1010 hPa
能見度: 16.1公里
少量云层高于2700英尺
阴天层高于4600英尺

METAR: KEET 170753Z AUTO 11004KT 10SM FEW027 OVC046 10/08 A2983 RMK AO2 SLP098 T01000083

时间: 02:50 (08:50 UTC)

预报

该预报发布于3小时和9分钟前的05:41 UTC
预报有效从17日的 06点(UTC)到 18日的 06点(UTC)
风速2节,风向东转东北
能見度: 10公里
散云层高于1000英尺
多云层高于5000英尺
附近有阵雨
从 17日的 1000点(UTC)
风速5节,风向东南
能見度: 10公里
阴天层高于1500英尺
从 17日的 1400点(UTC)
风速8节,风向南转南东
能見度: 10公里
阴天层高于1000英尺
附近有阵雨
从 17日的 1700点(UTC)
风速10节,风向
能見度: 8.0公里
阴天层高于800英尺
小阵雨
从 18日的 0400点(UTC)
风速7节,风向西
能見度: 6.4公里
阴天层高于800英尺
小雨

TAF: KEET 170541Z 1706/1806 07002KT P6SM VCSH SCT010 BKN050 FM171000 13005KT P6SM OVC015 FM171400 16008KT P6SM VCSH OVC010 FM171700 18010KT 5SM -SHRA OVC008 FM180400 27007KT 4SM -RA OVC008

超过4000个机场的气象观测和天气预报(METAR&TAF报告)。

可查询的气象台以黄色和红色小点在地图上表示。

将鼠标移到小点上方,可查看气象台名称。

然后点击查看天气观测和预报。

如需切换地图:点击带黑十字的绿色按钮放大地图;点击带横线的绿色按钮缩小地图;或者点击绿色箭头查看邻近地区的地图。


METAR-TAF: